createdAt,value
2018-10-18T00:00:17.461Z,72.80
2018-10-18T00:01:17.357Z,73.00
2018-10-18T00:02:17.431Z,73.90
2018-10-18T00:03:17.417Z,75.30
2018-10-18T00:04:17.370Z,74.70
2018-10-18T00:05:17.341Z,74.70
2018-10-18T00:06:17.455Z,73.30
2018-10-18T00:07:17.364Z,72.20
2018-10-18T00:08:17.473Z,70.80
2018-10-18T00:09:17.358Z,70.80
2018-10-18T00:10:17.338Z,72.80
2018-10-18T00:11:17.360Z,70.00
2018-10-18T00:12:17.378Z,71.40
2018-10-18T00:13:17.361Z,71.30
2018-10-18T00:14:17.399Z,72.70
2018-10-18T00:15:17.348Z,72.60
2018-10-18T00:16:17.359Z,70.70
2018-10-18T00:17:17.364Z,71.50
2018-10-18T00:18:17.386Z,73.40
2018-10-18T00:19:17.348Z,71.20
2018-10-18T00:20:17.353Z,71.60
2018-10-18T00:21:17.334Z,74.50
2018-10-18T00:22:17.334Z,74.10
2018-10-18T00:23:17.345Z,70.80
2018-10-18T00:24:17.471Z,71.90
2018-10-18T00:25:17.353Z,71.00
2018-10-18T00:26:17.390Z,72.40
2018-10-18T00:27:17.350Z,70.40
2018-10-18T00:28:17.359Z,72.30
2018-10-18T00:29:17.348Z,68.70
2018-10-18T00:30:17.500Z,71.00
2018-10-18T00:31:17.363Z,68.90
2018-10-18T00:32:17.428Z,71.50
2018-10-18T00:33:17.543Z,69.90
2018-10-18T00:34:17.352Z,71.40
2018-10-18T00:35:17.331Z,71.70
2018-10-18T00:36:17.471Z,73.70
2018-10-18T00:37:17.354Z,70.20
2018-10-18T00:38:17.348Z,72.00
2018-10-18T00:39:17.326Z,71.60
2018-10-18T00:40:17.328Z,71.50
2018-10-18T00:41:17.331Z,71.50
2018-10-18T00:42:17.499Z,71.20
2018-10-18T00:43:17.332Z,71.50
2018-10-18T00:44:17.352Z,70.70
2018-10-18T00:45:17.325Z,70.50
2018-10-18T00:46:17.326Z,70.10
2018-10-18T00:47:17.328Z,70.00
2018-10-18T00:48:17.360Z,72.40
2018-10-18T00:49:17.332Z,72.10
2018-10-18T00:50:17.406Z,69.30
2018-10-18T00:51:17.322Z,71.10
2018-10-18T00:52:17.320Z,70.40
2018-10-18T00:53:17.533Z,72.10
2018-10-18T00:54:17.349Z,70.20
2018-10-18T00:55:17.317Z,72.40
2018-10-18T00:56:17.415Z,73.30
2018-10-18T00:57:17.327Z,71.20
2018-10-18T00:58:17.328Z,71.00
2018-10-18T00:59:17.517Z,70.20
2018-10-18T01:00:17.457Z,69.90
2018-10-18T01:01:17.529Z,68.80
2018-10-18T01:02:17.422Z,68.80
2018-10-18T01:03:17.317Z,70.40
2018-10-18T01:04:17.312Z,71.20
2018-10-18T01:05:17.321Z,71.50
2018-10-18T01:06:17.430Z,71.40
2018-10-18T01:07:17.324Z,70.00
2018-10-18T01:08:17.437Z,71.50
2018-10-18T01:09:17.317Z,69.20
2018-10-18T01:10:17.323Z,70.20
2018-10-18T01:11:17.511Z,69.80
2018-10-18T01:12:17.391Z,67.20
2018-10-18T01:13:17.308Z,69.00
2018-10-18T01:14:17.368Z,69.90
2018-10-18T01:15:17.509Z,69.20
2018-10-18T01:16:17.304Z,69.50
2018-10-18T01:17:17.303Z,69.30
2018-10-18T01:18:17.389Z,70.20
2018-10-18T01:19:17.302Z,70.50
2018-10-18T01:20:17.379Z,70.60
2018-10-18T01:21:17.304Z,70.90
2018-10-18T01:22:17.304Z,67.70
2018-10-18T01:23:17.311Z,69.90
2018-10-18T01:24:17.421Z,70.70
2018-10-18T01:25:17.316Z,69.40
2018-10-18T01:26:17.396Z,72.20
2018-10-18T01:27:17.298Z,68.10
2018-10-18T01:28:17.322Z,68.40
2018-10-18T01:29:17.509Z,69.30
2018-10-18T01:30:17.297Z,69.20
2018-10-18T01:31:17.296Z,71.00
2018-10-18T01:32:17.331Z,70.00
2018-10-18T01:33:17.294Z,68.40
2018-10-18T01:34:17.293Z,69.90
2018-10-18T01:35:17.305Z,69.50
2018-10-18T01:36:17.429Z,69.00
2018-10-18T01:37:17.306Z,68.30
2018-10-18T01:38:17.468Z,69.60
2018-10-18T01:39:17.291Z,69.30
2018-10-18T01:40:17.291Z,71.10
2018-10-18T01:41:17.294Z,70.40
2018-10-18T01:42:17.347Z,71.50
2018-10-18T01:43:17.291Z,69.10
2018-10-18T01:44:17.395Z,70.50
2018-10-18T01:45:17.296Z,70.60
2018-10-18T01:46:17.310Z,71.20
2018-10-18T01:47:17.296Z,69.40
2018-10-18T01:48:17.405Z,72.00
2018-10-18T01:49:17.293Z,69.00
2018-10-18T01:50:17.454Z,71.30
2018-10-18T01:51:17.286Z,68.70
2018-10-18T01:52:17.305Z,70.50
2018-10-18T01:53:17.282Z,69.40
2018-10-18T01:54:17.613Z,69.60
2018-10-18T01:55:17.283Z,69.00
2018-10-18T01:56:17.361Z,68.80
2018-10-18T01:57:17.284Z,68.80
2018-10-18T01:58:17.278Z,69.00
2018-10-18T01:59:17.278Z,71.70
2018-10-18T02:00:17.433Z,70.20
2018-10-18T02:01:17.278Z,69.50
2018-10-18T02:02:17.455Z,71.30
2018-10-18T02:03:17.276Z,68.10
2018-10-18T02:04:17.277Z,69.50
2018-10-18T02:05:17.274Z,69.10
2018-10-18T02:06:17.421Z,67.70
2018-10-18T02:07:17.286Z,65.30
2018-10-18T02:08:17.430Z,68.80
2018-10-18T02:09:17.270Z,66.10
2018-10-18T02:10:17.288Z,66.50
2018-10-18T02:11:17.270Z,66.90
2018-10-18T02:12:17.395Z,65.30
2018-10-18T02:13:17.300Z,70.00
2018-10-18T02:14:17.268Z,68.50
2018-10-18T02:15:17.270Z,68.60
2018-10-18T02:16:17.277Z,67.20
2018-10-18T02:17:17.276Z,66.30
2018-10-18T02:18:17.450Z,68.00
2018-10-18T02:19:17.366Z,68.10
2018-10-18T02:20:17.281Z,68.40
2018-10-18T02:21:17.263Z,66.70
2018-10-18T02:22:17.274Z,65.60
2018-10-18T02:23:17.262Z,67.20
2018-10-18T02:24:17.368Z,67.70
2018-10-18T02:25:17.407Z,68.00
2018-10-18T02:26:17.275Z,68.50
2018-10-18T02:27:17.270Z,69.10
2018-10-18T02:28:17.476Z,69.30
2018-10-18T02:29:17.257Z,67.60
2018-10-18T02:30:17.416Z,67.30
2018-10-18T02:31:17.282Z,68.20
2018-10-18T02:32:17.287Z,69.20
2018-10-18T02:33:17.255Z,67.90
2018-10-18T02:34:17.265Z,67.60
2018-10-18T02:35:17.263Z,65.30
2018-10-18T02:36:17.283Z,66.30
2018-10-18T02:37:17.252Z,66.50
2018-10-18T02:38:17.251Z,65.90
2018-10-18T02:39:17.261Z,65.10
2018-10-18T02:40:17.266Z,63.30
2018-10-18T02:41:17.251Z,62.20
2018-10-18T02:42:17.289Z,62.30
2018-10-18T02:43:17.262Z,61.30
2018-10-18T02:44:17.246Z,62.50
2018-10-18T02:45:17.253Z,61.70
2018-10-18T02:46:17.257Z,61.40
2018-10-18T02:47:17.245Z,58.70
2018-10-18T02:48:17.343Z,59.50
2018-10-18T02:49:17.245Z,59.90
2018-10-18T02:50:17.449Z,60.00
2018-10-18T02:51:17.241Z,58.90
2018-10-18T02:52:17.245Z,59.90
2018-10-18T02:53:17.267Z,59.60
2018-10-18T02:54:17.270Z,58.90
2018-10-18T02:55:17.238Z,58.10
2018-10-18T02:56:17.239Z,56.30
2018-10-18T02:57:17.236Z,55.70
2018-10-18T02:58:17.237Z,57.80
2018-10-18T02:59:17.248Z,55.60
2018-10-18T03:00:17.299Z,58.00
2018-10-18T03:01:17.438Z,55.60
2018-10-18T03:02:17.242Z,55.30
2018-10-18T03:03:17.243Z,55.40
2018-10-18T03:04:17.236Z,54.40
2018-10-18T03:05:17.241Z,54.20
2018-10-18T03:06:17.260Z,53.80
2018-10-18T03:07:17.241Z,54.00
2018-10-18T03:08:17.242Z,53.40
2018-10-18T03:09:17.228Z,53.70
2018-10-18T03:10:17.230Z,55.50
2018-10-18T03:11:17.227Z,54.10
2018-10-18T03:12:17.256Z,54.50
2018-10-18T03:13:17.225Z,53.40
2018-10-18T03:14:17.427Z,52.80
2018-10-18T03:15:17.222Z,52.10
2018-10-18T03:16:17.234Z,51.40
2018-10-18T03:17:17.237Z,51.20
2018-10-18T03:18:17.290Z,52.20
2018-10-18T03:19:17.438Z,51.40
2018-10-18T03:20:17.220Z,51.40
2018-10-18T03:21:17.222Z,50.20
2018-10-18T03:22:17.218Z,48.60
2018-10-18T03:23:17.217Z,49.50
2018-10-18T03:24:17.274Z,50.40
2018-10-18T03:25:17.218Z,48.30
2018-10-18T03:26:17.218Z,48.90
2018-10-18T03:27:17.425Z,48.20
2018-10-18T03:28:17.231Z,48.90
2018-10-18T03:29:17.213Z,47.60
2018-10-18T03:30:17.347Z,48.10
2018-10-18T03:31:17.230Z,46.70
2018-10-18T03:32:17.229Z,46.40
2018-10-18T03:33:17.213Z,46.10
2018-10-18T03:34:17.251Z,45.90
2018-10-18T03:35:17.227Z,44.50
2018-10-18T03:36:17.271Z,44.70
2018-10-18T03:37:17.221Z,43.00
2018-10-18T03:38:17.210Z,45.20
2018-10-18T03:39:17.210Z,44.10
2018-10-18T03:40:17.222Z,44.80
2018-10-18T03:41:17.268Z,44.60
2018-10-18T03:42:17.276Z,44.60
2018-10-18T03:43:17.223Z,44.00
2018-10-18T03:44:17.206Z,43.50
2018-10-18T03:45:17.230Z,42.20
2018-10-18T03:46:17.240Z,44.70
2018-10-18T03:47:17.216Z,43.70
2018-10-18T03:48:17.254Z,44.80
2018-10-18T03:49:17.218Z,43.80
2018-10-18T03:50:17.232Z,44.60
2018-10-18T03:51:17.421Z,44.10
2018-10-18T03:52:17.255Z,45.30
2018-10-18T03:53:17.205Z,45.10
2018-10-18T03:54:17.293Z,44.80
2018-10-18T03:55:17.201Z,45.30
2018-10-18T03:56:17.216Z,45.40
2018-10-18T03:57:17.200Z,45.30
2018-10-18T03:58:17.212Z,45.10
2018-10-18T03:59:17.202Z,44.90
2018-10-18T04:00:17.286Z,44.60
2018-10-18T04:01:17.202Z,45.20
2018-10-18T04:02:17.199Z,46.90
2018-10-18T04:03:17.211Z,46.90
2018-10-18T04:04:17.201Z,47.00
2018-10-18T04:05:17.198Z,46.70
2018-10-18T04:06:17.400Z,47.60
2018-10-18T04:07:17.213Z,47.40
2018-10-18T04:08:17.199Z,46.60
2018-10-18T04:09:17.198Z,47.30
2018-10-18T04:10:17.195Z,47.30
2018-10-18T04:11:17.206Z,47.80
2018-10-18T04:12:17.328Z,47.00
2018-10-18T04:13:17.299Z,49.50
2018-10-18T04:14:17.209Z,48.00
2018-10-18T04:15:17.194Z,51.30
2018-10-18T04:16:17.208Z,50.60
2018-10-18T04:17:17.210Z,50.30
2018-10-18T04:18:17.217Z,52.80
2018-10-18T04:19:17.192Z,50.50
2018-10-18T04:20:17.193Z,50.90
2018-10-18T04:21:17.193Z,52.40
2018-10-18T04:22:17.215Z,50.40
2018-10-18T04:23:17.207Z,51.10
2018-10-18T04:24:17.359Z,50.70
2018-10-18T04:25:17.224Z,48.40
2018-10-18T04:26:17.213Z,49.30
2018-10-18T04:27:17.213Z,49.90
2018-10-18T04:28:17.391Z,49.90
2018-10-18T04:29:17.189Z,49.60
2018-10-18T04:30:17.267Z,48.40
2018-10-18T04:31:17.212Z,50.10
2018-10-18T04:32:17.206Z,49.40
2018-10-18T04:33:17.197Z,49.20
2018-10-18T04:34:17.185Z,50.90
2018-10-18T04:35:17.218Z,51.70
2018-10-18T04:36:17.279Z,50.20
2018-10-18T04:37:17.239Z,51.10
2018-10-18T04:38:17.181Z,50.40
2018-10-18T04:39:17.185Z,51.20
2018-10-18T04:40:17.196Z,50.20
2018-10-18T04:41:17.210Z,49.80
2018-10-18T04:42:17.263Z,53.00
2018-10-18T04:43:17.182Z,51.30
2018-10-18T04:44:17.193Z,52.90
2018-10-18T04:45:17.194Z,52.20
2018-10-18T04:46:17.381Z,53.40
2018-10-18T04:47:17.205Z,52.40
2018-10-18T04:48:17.235Z,55.40
2018-10-18T04:49:17.192Z,54.00
2018-10-18T04:50:17.187Z,54.70
2018-10-18T04:51:17.176Z,53.20
2018-10-18T04:52:17.174Z,53.70
2018-10-18T04:53:17.188Z,55.00
2018-10-18T04:54:17.185Z,54.90
2018-10-18T04:55:17.317Z,54.00
2018-10-18T04:56:17.173Z,52.50
2018-10-18T04:57:17.173Z,54.50
2018-10-18T04:58:17.173Z,54.00
2018-10-18T04:59:17.176Z,54.60
2018-10-18T05:00:17.170Z,53.60
2018-10-18T05:01:17.348Z,52.80
2018-10-18T05:02:17.172Z,52.50
2018-10-18T05:03:17.176Z,54.40
2018-10-18T05:04:17.183Z,54.10
2018-10-18T05:05:17.169Z,54.30
2018-10-18T05:06:17.165Z,55.10
2018-10-18T05:07:17.310Z,55.40
2018-10-18T05:08:17.175Z,54.80
2018-10-18T05:09:17.165Z,53.40
2018-10-18T05:10:17.167Z,53.80
2018-10-18T05:11:17.178Z,55.20
2018-10-18T05:12:17.166Z,54.80
2018-10-18T05:13:17.261Z,55.00
2018-10-18T05:14:17.163Z,54.60
2018-10-18T05:15:17.162Z,54.30
2018-10-18T05:16:17.159Z,53.30
2018-10-18T05:17:17.160Z,53.60
2018-10-18T05:18:17.161Z,53.40
2018-10-18T05:19:17.286Z,53.90
2018-10-18T05:20:17.156Z,51.40
2018-10-18T05:21:17.162Z,52.30
2018-10-18T05:22:17.215Z,50.40
2018-10-18T05:23:17.169Z,51.60
2018-10-18T05:24:17.152Z,50.50
2018-10-18T05:25:17.256Z,51.30
2018-10-18T05:26:17.152Z,51.30
2018-10-18T05:27:17.154Z,50.80
2018-10-18T05:28:17.150Z,50.20
2018-10-18T05:29:17.161Z,50.70
2018-10-18T05:30:17.178Z,49.90
2018-10-18T05:31:17.192Z,49.90
2018-10-18T05:32:17.148Z,49.60
2018-10-18T05:33:17.157Z,50.10
2018-10-18T05:34:17.147Z,48.50
2018-10-18T05:35:17.150Z,48.20
2018-10-18T05:36:17.164Z,48.00
2018-10-18T05:37:17.250Z,47.20
2018-10-18T05:38:17.144Z,47.20
2018-10-18T05:39:17.149Z,47.10
2018-10-18T05:40:17.158Z,46.40
2018-10-18T05:41:17.204Z,46.40
2018-10-18T05:42:17.144Z,46.60
2018-10-18T05:43:17.325Z,47.40
2018-10-18T05:44:17.163Z,47.60
2018-10-18T05:45:17.143Z,49.40
2018-10-18T05:46:17.141Z,49.40
2018-10-18T05:47:17.201Z,50.30
2018-10-18T05:48:17.154Z,49.50
2018-10-18T05:49:17.216Z,50.80
2018-10-18T05:50:17.154Z,51.60
2018-10-18T05:51:17.342Z,50.90
2018-10-18T05:52:17.138Z,50.60
2018-10-18T05:53:17.258Z,49.00
2018-10-18T05:54:17.253Z,50.70
2018-10-18T05:55:17.238Z,51.80
2018-10-18T05:56:17.142Z,50.10
2018-10-18T05:57:17.355Z,50.30
2018-10-18T05:58:17.337Z,50.80
2018-10-18T05:59:17.135Z,50.50
2018-10-18T06:00:17.269Z,48.40
2018-10-18T06:01:17.274Z,49.90
2018-10-18T06:02:17.136Z,51.70
2018-10-18T06:03:17.133Z,48.90
2018-10-18T06:04:17.132Z,50.10
2018-10-18T06:05:17.142Z,48.40
2018-10-18T06:06:17.132Z,48.90
2018-10-18T06:07:17.232Z,49.80
2018-10-18T06:08:17.150Z,49.30
2018-10-18T06:09:17.132Z,49.90
2018-10-18T06:10:17.260Z,48.80
2018-10-18T06:11:17.334Z,51.00
2018-10-18T06:12:17.128Z,49.00
2018-10-18T06:13:17.316Z,48.20
2018-10-18T06:14:17.135Z,51.00
2018-10-18T06:15:17.126Z,50.40
2018-10-18T06:16:17.126Z,50.90
2018-10-18T06:17:17.139Z,56.00
2018-10-18T06:18:17.125Z,51.10
2018-10-18T06:19:17.291Z,49.40
2018-10-18T06:20:17.134Z,50.90
2018-10-18T06:21:17.132Z,50.80
2018-10-18T06:22:17.134Z,51.00
2018-10-18T06:23:17.215Z,51.10
2018-10-18T06:24:17.134Z,50.50
2018-10-18T06:25:17.249Z,50.40
2018-10-18T06:26:17.129Z,50.60
2018-10-18T06:27:17.121Z,51.80
2018-10-18T06:28:17.136Z,50.40
2018-10-18T06:29:17.138Z,52.00
2018-10-18T06:30:17.132Z,51.70
2018-10-18T06:31:17.118Z,50.30
2018-10-18T06:32:17.116Z,51.50
2018-10-18T06:33:17.126Z,51.40
2018-10-18T06:34:17.142Z,49.90
2018-10-18T06:35:17.128Z,49.20
2018-10-18T06:36:17.129Z,51.30
2018-10-18T06:37:17.195Z,51.00
2018-10-18T06:38:17.128Z,49.20
2018-10-18T06:39:17.241Z,49.30
2018-10-18T06:40:17.128Z,49.40
2018-10-18T06:41:17.239Z,49.80
2018-10-18T06:42:17.123Z,50.70
2018-10-18T06:43:17.263Z,50.10
2018-10-18T06:44:17.125Z,49.30
2018-10-18T06:45:17.109Z,49.70
2018-10-18T06:46:17.106Z,49.50
2018-10-18T06:47:17.181Z,50.30
2018-10-18T06:48:17.107Z,49.90
2018-10-18T06:49:17.197Z,48.30
2018-10-18T06:50:17.126Z,49.50
2018-10-18T06:51:17.108Z,50.00
2018-10-18T06:52:17.131Z,49.00
2018-10-18T06:53:17.119Z,48.60
2018-10-18T06:54:17.240Z,48.20
2018-10-18T06:55:17.216Z,49.30
2018-10-18T06:56:17.104Z,49.50
2018-10-18T06:57:17.102Z,48.60
2018-10-18T06:58:17.101Z,49.20
2018-10-18T06:59:17.102Z,47.50
2018-10-18T07:00:17.177Z,48.00
2018-10-18T07:01:17.305Z,48.80
2018-10-18T07:02:17.123Z,47.40
2018-10-18T07:03:17.110Z,46.40
2018-10-18T07:04:17.113Z,49.70
2018-10-18T07:05:17.103Z,47.90
2018-10-18T07:06:17.221Z,46.50
2018-10-18T07:07:17.098Z,48.20
2018-10-18T07:08:17.109Z,46.60
2018-10-18T07:09:17.301Z,48.10
2018-10-18T07:10:17.099Z,46.30
2018-10-18T07:11:17.105Z,46.80
2018-10-18T07:12:17.228Z,48.00
2018-10-18T07:13:17.095Z,46.80
2018-10-18T07:14:17.104Z,46.80
2018-10-18T07:15:17.099Z,47.10
2018-10-18T07:16:17.094Z,46.80
2018-10-18T07:17:17.092Z,47.70
2018-10-18T07:18:17.253Z,47.20
2018-10-18T07:19:17.092Z,46.80
2018-10-18T07:20:17.312Z,47.60
2018-10-18T07:21:17.090Z,48.00
2018-10-18T07:22:17.092Z,48.40
2018-10-18T07:23:17.091Z,48.60
2018-10-18T07:24:17.207Z,48.20
2018-10-18T07:25:17.132Z,47.50
2018-10-18T07:26:17.104Z,48.30
2018-10-18T07:27:17.089Z,48.80
2018-10-18T07:28:17.298Z,47.20
2018-10-18T07:29:17.306Z,49.00
2018-10-18T07:30:17.229Z,47.00
2018-10-18T07:31:17.100Z,48.60
2018-10-18T07:32:17.117Z,48.00
2018-10-18T07:33:17.112Z,47.00
2018-10-18T07:34:17.101Z,47.10
2018-10-18T07:35:17.102Z,46.20
2018-10-18T07:36:17.153Z,47.10
2018-10-18T07:37:17.107Z,47.40
2018-10-18T07:38:17.299Z,45.50
2018-10-18T07:39:17.083Z,48.00
2018-10-18T07:40:17.099Z,46.60
2018-10-18T07:41:17.135Z,47.20
2018-10-18T07:42:17.173Z,48.40
2018-10-18T07:43:17.089Z,45.50
2018-10-18T07:44:17.090Z,45.50
2018-10-18T07:45:17.098Z,44.30
2018-10-18T07:46:17.084Z,45.30
2018-10-18T07:47:17.115Z,46.00
2018-10-18T07:48:17.239Z,45.30
2018-10-18T07:49:17.093Z,43.70
2018-10-18T07:50:17.084Z,43.00
2018-10-18T07:51:17.082Z,43.80
2018-10-18T07:52:17.105Z,42.80
2018-10-18T07:53:17.158Z,43.00
2018-10-18T07:54:17.146Z,43.00
2018-10-18T07:55:17.089Z,42.00
2018-10-18T07:56:17.078Z,43.60
2018-10-18T07:57:17.090Z,41.90
2018-10-18T07:58:17.080Z,40.70
2018-10-18T07:59:17.081Z,40.60
2018-10-18T08:00:17.409Z,39.70
2018-10-18T08:01:17.075Z,40.50
2018-10-18T08:02:17.081Z,40.00
2018-10-18T08:03:17.293Z,40.40
2018-10-18T08:04:17.090Z,41.10
2018-10-18T08:05:17.085Z,41.10
2018-10-18T08:06:17.074Z,39.00
2018-10-18T08:07:17.234Z,38.80
2018-10-18T08:08:17.088Z,39.20
2018-10-18T08:09:17.074Z,39.40
2018-10-18T08:10:17.101Z,39.90
2018-10-18T08:11:17.087Z,40.40
2018-10-18T08:12:17.087Z,39.70
2018-10-18T08:13:17.122Z,38.70
2018-10-18T08:14:17.091Z,37.90
2018-10-18T08:15:17.085Z,37.70
2018-10-18T08:16:17.089Z,37.80
2018-10-18T08:17:17.522Z,39.20
2018-10-18T08:18:17.078Z,39.20
2018-10-18T08:19:17.435Z,38.20
2018-10-18T08:20:17.085Z,37.90
2018-10-18T08:21:17.069Z,37.80
2018-10-18T08:22:17.074Z,36.90
2018-10-18T08:23:17.100Z,37.90
2018-10-18T08:24:17.096Z,37.10
2018-10-18T08:25:17.224Z,36.50
2018-10-18T08:26:17.082Z,36.40
2018-10-18T08:27:17.071Z,36.50
2018-10-18T08:28:17.082Z,37.00
2018-10-18T08:29:17.069Z,37.10
2018-10-18T08:30:17.273Z,36.80
2018-10-18T08:31:17.249Z,35.50
2018-10-18T08:32:17.073Z,35.60
2018-10-18T08:33:17.069Z,36.20
2018-10-18T08:34:17.089Z,35.60
2018-10-18T08:35:17.078Z,35.80
2018-10-18T08:36:17.089Z,34.20
2018-10-18T08:37:17.196Z,34.30
2018-10-18T08:38:17.219Z,34.70
2018-10-18T08:39:17.289Z,34.40
2018-10-18T08:40:17.082Z,32.40
2018-10-18T08:41:17.065Z,32.10
2018-10-18T08:42:17.075Z,34.20
2018-10-18T08:43:17.134Z,32.70
2018-10-18T08:44:17.069Z,31.80
2018-10-18T08:45:17.063Z,32.60
2018-10-18T08:46:17.078Z,31.70
2018-10-18T08:47:17.075Z,31.90
2018-10-18T08:48:17.092Z,31.60
2018-10-18T08:49:17.154Z,32.30
2018-10-18T08:50:17.061Z,32.30
2018-10-18T08:51:17.063Z,30.50
2018-10-18T08:52:17.072Z,30.90
2018-10-18T08:53:17.065Z,30.60
2018-10-18T08:54:17.062Z,31.00
2018-10-18T08:55:17.141Z,30.40
2018-10-18T08:56:17.077Z,30.10
2018-10-18T08:57:17.059Z,30.20
2018-10-18T08:58:17.073Z,30.20
2018-10-18T08:59:17.159Z,31.90
2018-10-18T09:00:17.072Z,32.00
2018-10-18T09:01:17.220Z,32.30
2018-10-18T09:02:17.074Z,32.50
2018-10-18T09:03:17.058Z,33.60
2018-10-18T09:04:17.059Z,33.60
2018-10-18T09:05:17.059Z,35.30
2018-10-18T09:06:17.074Z,35.00
2018-10-18T09:07:17.160Z,35.70
2018-10-18T09:08:17.058Z,33.90
2018-10-18T09:09:17.161Z,33.40
2018-10-18T09:10:17.069Z,32.50
2018-10-18T09:11:17.070Z,33.30
2018-10-18T09:12:17.057Z,32.90
2018-10-18T09:13:17.155Z,30.80
2018-10-18T09:14:17.059Z,31.80
2018-10-18T09:15:17.085Z,31.60
2018-10-18T09:16:17.066Z,31.10
2018-10-18T09:17:17.064Z,31.00
2018-10-18T09:18:17.056Z,30.80
2018-10-18T09:19:17.104Z,30.10
2018-10-18T09:20:17.068Z,32.60
2018-10-18T09:21:17.075Z,32.40
2018-10-18T09:22:17.064Z,32.00
2018-10-18T09:23:17.052Z,30.80
2018-10-18T09:24:17.068Z,30.70
2018-10-18T09:25:17.223Z,31.10
2018-10-18T09:26:17.052Z,32.10
2018-10-18T09:27:17.060Z,32.70
2018-10-18T09:28:17.048Z,33.40
2018-10-18T09:29:17.053Z,33.10
2018-10-18T09:30:17.099Z,35.00
2018-10-18T09:31:17.388Z,35.70
2018-10-18T09:32:17.060Z,34.40
2018-10-18T09:33:17.053Z,35.40
2018-10-18T09:34:17.051Z,34.90
2018-10-18T09:35:17.062Z,36.20
2018-10-18T09:36:17.049Z,35.30
2018-10-18T09:37:17.121Z,35.00
2018-10-18T09:38:17.108Z,33.70
2018-10-18T09:39:17.060Z,33.50
2018-10-18T09:40:17.059Z,32.60
2018-10-18T09:41:17.055Z,31.00
2018-10-18T09:42:17.048Z,31.20
2018-10-18T09:43:17.092Z,31.00
2018-10-18T09:44:17.133Z,31.00
2018-10-18T09:45:17.051Z,30.60
2018-10-18T09:46:17.056Z,32.00
2018-10-18T09:47:17.056Z,31.10
2018-10-18T09:48:17.046Z,29.40
2018-10-18T09:49:17.172Z,30.10
2018-10-18T09:50:17.068Z,30.60
2018-10-18T09:51:17.248Z,29.90
2018-10-18T09:52:17.057Z,28.90
2018-10-18T09:53:17.046Z,30.70
2018-10-18T09:54:17.045Z,29.50
2018-10-18T09:55:17.191Z,29.70
2018-10-18T09:56:17.119Z,28.60
2018-10-18T09:57:17.044Z,29.50
2018-10-18T09:58:17.057Z,28.80
2018-10-18T09:59:17.062Z,30.30
2018-10-18T10:00:17.053Z,29.50
2018-10-18T10:01:17.142Z,29.90
2018-10-18T10:02:17.045Z,29.50
2018-10-18T10:03:17.069Z,28.10
2018-10-18T10:04:17.225Z,26.60
2018-10-18T10:05:17.077Z,26.70
2018-10-18T10:06:17.056Z,26.30
2018-10-18T10:07:17.138Z,25.20
2018-10-18T10:08:17.045Z,24.70
2018-10-18T10:09:17.044Z,23.60
2018-10-18T10:10:17.057Z,23.60
2018-10-18T10:11:17.093Z,22.40
2018-10-18T10:12:17.054Z,21.80
2018-10-18T10:13:17.146Z,21.20
2018-10-18T10:14:17.054Z,21.70
2018-10-18T10:15:17.046Z,21.50
2018-10-18T10:16:17.046Z,21.80
2018-10-18T10:17:17.166Z,21.00
2018-10-18T10:18:17.157Z,20.90
2018-10-18T10:19:17.125Z,20.10
2018-10-18T10:20:17.047Z,21.10
2018-10-18T10:21:17.046Z,21.50
2018-10-18T10:22:17.056Z,20.40
2018-10-18T10:23:17.041Z,20.00
2018-10-18T10:24:17.055Z,20.60
2018-10-18T10:25:17.080Z,21.10
2018-10-18T10:26:17.046Z,19.50
2018-10-18T10:27:17.042Z,20.70
2018-10-18T10:28:17.248Z,20.20
2018-10-18T10:29:17.044Z,20.10
2018-10-18T10:30:17.152Z,19.40
2018-10-18T10:31:17.311Z,19.50
2018-10-18T10:32:17.044Z,19.60
2018-10-18T10:33:17.063Z,19.10
2018-10-18T10:34:17.076Z,20.40
2018-10-18T10:35:17.118Z,21.10
2018-10-18T10:36:17.056Z,21.90
2018-10-18T10:37:17.047Z,21.90
2018-10-18T10:38:17.044Z,21.70
2018-10-18T10:39:17.084Z,20.10
2018-10-18T10:40:17.102Z,20.70
2018-10-18T10:41:17.141Z,21.40
2018-10-18T10:42:17.171Z,22.00
2018-10-18T10:43:17.085Z,20.60
2018-10-18T10:44:17.098Z,21.40
2018-10-18T10:45:17.177Z,21.30
2018-10-18T10:46:17.065Z,21.70
2018-10-18T10:47:17.075Z,22.10
2018-10-18T10:48:17.211Z,20.40
2018-10-18T10:49:17.086Z,20.80
2018-10-18T10:50:17.160Z,20.10
2018-10-18T10:51:17.172Z,20.50
2018-10-18T10:52:17.165Z,21.20
2018-10-18T10:53:17.065Z,20.70
2018-10-18T10:54:17.141Z,20.60
2018-10-18T10:55:17.045Z,20.80
2018-10-18T10:56:17.132Z,20.40
2018-10-18T10:57:17.188Z,19.70
2018-10-18T10:58:17.149Z,19.60
2018-10-18T10:59:17.060Z,19.70
2018-10-18T11:00:17.143Z,18.20
2018-10-18T11:01:17.066Z,18.40
2018-10-18T11:02:17.440Z,18.30
2018-10-18T11:03:17.156Z,16.90
2018-10-18T11:04:17.050Z,16.40
2018-10-18T11:05:17.051Z,15.10
2018-10-18T11:06:17.176Z,14.60
2018-10-18T11:07:17.046Z,14.20
2018-10-18T11:08:17.145Z,14.10
2018-10-18T11:09:17.092Z,14.20
2018-10-18T11:10:17.063Z,13.70
2018-10-18T11:11:17.046Z,12.60
2018-10-18T11:12:17.112Z,14.30
2018-10-18T11:13:17.064Z,14.40
2018-10-18T11:14:17.140Z,14.40
2018-10-18T11:15:17.133Z,15.00
2018-10-18T11:16:17.053Z,14.90
2018-10-18T11:17:17.230Z,14.70
2018-10-18T11:18:17.192Z,14.60
2018-10-18T11:19:17.060Z,13.00
2018-10-18T11:20:17.122Z,12.00
2018-10-18T11:21:17.157Z,9.90
2018-10-18T11:22:17.063Z,9.10
2018-10-18T11:23:17.054Z,9.50
2018-10-18T11:24:17.107Z,9.90
2018-10-18T11:25:17.066Z,9.00
2018-10-18T11:26:17.206Z,7.80
2018-10-18T11:27:17.162Z,6.60
2018-10-18T11:28:17.257Z,5.60
2018-10-18T11:29:17.052Z,6.10
2018-10-18T11:30:17.203Z,6.90
2018-10-18T11:31:17.055Z,6.90
2018-10-18T11:32:17.134Z,6.70
2018-10-18T11:33:17.297Z,6.60
2018-10-18T11:34:17.084Z,6.60
2018-10-18T11:35:17.075Z,6.10
2018-10-18T11:36:17.208Z,5.70
2018-10-18T11:37:17.068Z,5.40
2018-10-18T11:38:17.124Z,5.40
2018-10-18T11:39:17.070Z,5.60
2018-10-18T11:40:17.074Z,6.00
2018-10-18T11:41:17.070Z,5.90
2018-10-18T11:42:17.151Z,5.30
2018-10-18T11:43:17.059Z,4.90
2018-10-18T11:44:17.167Z,4.40
2018-10-18T11:45:17.061Z,4.20
2018-10-18T11:46:17.069Z,3.60
2018-10-18T11:47:17.075Z,3.90
2018-10-18T11:48:17.075Z,3.10
2018-10-18T11:49:17.072Z,3.40
2018-10-18T11:50:17.127Z,3.90
2018-10-18T11:51:17.065Z,3.60
2018-10-18T11:52:17.063Z,3.60
2018-10-18T11:53:17.267Z,3.10
2018-10-18T11:54:17.387Z,3.70
2018-10-18T11:55:17.078Z,3.50
2018-10-18T11:56:17.221Z,3.50
2018-10-18T11:57:17.077Z,3.70
2018-10-18T11:58:17.066Z,3.30
2018-10-18T11:59:17.155Z,3.50
2018-10-18T12:00:17.067Z,3.40
2018-10-18T12:01:17.321Z,4.30
2018-10-18T12:02:17.263Z,4.30
2018-10-18T12:03:17.081Z,4.10
2018-10-18T12:04:17.104Z,4.40
2018-10-18T12:05:17.157Z,4.50
2018-10-18T12:06:17.089Z,4.50
2018-10-18T12:07:17.275Z,4.50
2018-10-18T12:08:17.256Z,4.60
2018-10-18T12:09:17.086Z,4.30
2018-10-18T12:10:17.075Z,3.60
2018-10-18T12:11:17.175Z,3.90
2018-10-18T12:12:17.075Z,3.00
2018-10-18T12:13:17.087Z,3.30
2018-10-18T12:14:17.169Z,3.50
2018-10-18T12:15:17.280Z,3.10
2018-10-18T12:16:17.091Z,3.40
2018-10-18T12:17:17.120Z,3.30
2018-10-18T12:18:17.102Z,3.40
2018-10-18T12:19:17.119Z,3.20
2018-10-18T12:20:17.231Z,3.30
2018-10-18T12:21:17.095Z,4.00
2018-10-18T12:22:17.095Z,4.10
2018-10-18T12:23:17.231Z,4.60
2018-10-18T12:24:17.101Z,4.40
2018-10-18T12:25:17.086Z,4.80
2018-10-18T12:26:17.331Z,4.80
2018-10-18T12:27:17.092Z,4.50
2018-10-18T12:28:17.090Z,4.50
2018-10-18T12:29:17.122Z,3.60
2018-10-18T12:30:17.093Z,3.70
2018-10-18T12:31:17.306Z,3.80
2018-10-18T12:32:17.182Z,3.50
2018-10-18T12:33:17.110Z,4.00
2018-10-18T12:34:17.098Z,3.50
2018-10-18T12:35:17.163Z,3.30
2018-10-18T12:36:17.103Z,3.20
2018-10-18T12:37:17.115Z,3.70
2018-10-18T12:38:17.241Z,4.00
2018-10-18T12:39:17.144Z,3.50
2018-10-18T12:40:17.354Z,4.40
2018-10-18T12:41:17.264Z,4.70
2018-10-18T12:42:17.107Z,5.30
2018-10-18T12:43:17.119Z,4.70
2018-10-18T12:44:17.253Z,4.60
2018-10-18T12:45:17.119Z,4.30
2018-10-18T12:46:17.133Z,3.10
2018-10-18T12:47:17.123Z,3.90
2018-10-18T12:48:17.531Z,3.00
2018-10-18T12:49:17.126Z,3.00
2018-10-18T12:50:17.439Z,3.30
2018-10-18T12:51:17.114Z,2.80
2018-10-18T12:52:17.140Z,3.00
2018-10-18T12:53:17.118Z,2.70
2018-10-18T12:54:17.186Z,2.30
2018-10-18T12:55:17.130Z,2.60